Time,TemperatureF,DewpointF,PressureIn,WindDirection,WindDirectionDegrees,WindSpeedMPH,WindSpeedGustMPH,Humidity,HourlyPrecipIn,Conditions,Clouds,dailyrainin,SoftwareType,DateUTC
2013-05-04 00:02:00,63.9,43.8,29.67,South,180,0.0,-999.0,48,-99.99,,,0.00,Acu-Link.com,2013-05-04 07:02:00,
2013-05-04 00:17:00,63.1,44.2,29.67,ENE,67,0.0,-999.0,50,-99.99,,,0.00,Acu-Link.com,2013-05-04 07:17:00,
2013-05-04 00:32:00,62.8,43.9,29.67,ESE,112,0.0,-999.0,50,-99.99,,,0.00,Acu-Link.com,2013-05-04 07:32:00,
2013-05-04 00:48:00,63.0,43.5,29.67,East,90,2.2,-999.0,49,-99.99,,,0.00,Acu-Link.com,2013-05-04 07:48:00,
2013-05-04 01:03:00,63.1,43.1,29.67,NE,45,1.7,-999.0,48,-99.99,,,0.00,Acu-Link.com,2013-05-04 08:03:00,
2013-05-04 01:18:00,63.0,43.0,29.67,North,0,0.0,-999.0,48,-99.99,,,0.00,Acu-Link.com,2013-05-04 08:18:00,
2013-05-04 01:33:00,61.9,43.1,29.66,East,90,0.0,-999.0,50,-99.99,,,0.00,Acu-Link.com,2013-05-04 08:33:00,
2013-05-04 01:49:00,61.0,43.2,29.65,WSW,247,0.0,-999.0,52,-99.99,,,0.00,Acu-Link.com,2013-05-04 08:49:00,
2013-05-04 02:04:00,60.3,44.1,29.66,East,90,0.0,-999.0,55,-99.99,,,0.00,Acu-Link.com,2013-05-04 09:04:00,
2013-05-04 02:19:00,60.4,44.6,29.66,WNW,292,3.2,-999.0,56,-99.99,,,0.00,Acu-Link.com,2013-05-04 09:19:00,
2013-05-04 02:34:00,61.2,44.4,29.66,NNW,337,1.7,-999.0,54,-99.99,,,0.00,Acu-Link.com,2013-05-04 09:34:00,
2013-05-04 02:49:00,60.8,44.0,29.65,North,0,1.7,-999.0,54,-99.99,,,0.00,Acu-Link.com,2013-05-04 09:49:00,
2013-05-04 03:05:00,60.3,44.5,29.65,WNW,292,2.2,-999.0,56,-99.99,,,0.00,Acu-Link.com,2013-05-04 10:05:00,
2013-05-04 03:20:00,59.9,45.1,29.65,NNW,337,1.7,-999.0,58,-99.99,,,0.00,Acu-Link.com,2013-05-04 10:20:00,
2013-05-04 03:35:00,59.9,45.5,29.65,West,270,0.0,-999.0,59,-99.99,,,0.00,Acu-Link.com,2013-05-04 10:35:00,
2013-05-04 03:50:00,59.0,45.6,29.64,West,270,3.7,-999.0,61,-99.99,,,0.00,Acu-Link.com,2013-05-04 10:50:00,
2013-05-04 04:05:00,62.6,44.7,29.64,NNW,337,3.7,-999.0,52,-99.99,,,0.00,Acu-Link.com,2013-05-04 11:05:00,
2013-05-04 04:21:00,62.4,44.5,29.64,West,270,0.0,-999.0,52,-99.99,,,0.00,Acu-Link.com,2013-05-04 11:21:00,
2013-05-04 04:36:00,61.5,45.7,29.63,NW,315,2.2,-999.0,56,-99.99,,,0.00,Acu-Link.com,2013-05-04 11:36:00,
2013-05-04 04:51:00,61.5,45.7,29.63,North,0,1.7,-999.0,56,-99.99,,,0.00,Acu-Link.com,2013-05-04 11:51:00,
2013-05-04 05:06:00,61.5,44.7,29.63,West,270,2.2,-999.0,54,-99.99,,,0.00,Acu-Link.com,2013-05-04 12:06:00,
2013-05-04 05:21:00,61.7,43.4,29.63,West,270,3.7,-999.0,51,-99.99,,,0.00,Acu-Link.com,2013-05-04 12:21:00,
2013-05-04 05:37:00,61.9,42.5,29.63,North,0,2.2,-999.0,49,-99.99,,,0.00,Acu-Link.com,2013-05-04 12:37:00,
2013-05-04 05:52:00,61.3,41.4,29.63,NNW,337,3.2,-999.0,48,-99.99,,,0.00,Acu-Link.com,2013-05-04 12:52:00,
2013-05-04 06:07:00,61.2,40.8,29.63,NNW,337,1.7,-999.0,47,-99.99,,,0.00,Acu-Link.com,2013-05-04 13:07:00,
2013-05-04 06:23:00,60.3,40.0,29.63,NNW,337,0.0,-999.0,47,-99.99,,,0.00,Acu-Link.com,2013-05-04 13:23:00,
2013-05-04 06:38:00,61.3,40.3,29.63,West,270,1.1,-999.0,46,-99.99,,,0.00,Acu-Link.com,2013-05-04 13:38:00,
2013-05-04 06:53:00,64.4,40.2,29.63,NNW,337,4.2,-999.0,41,-99.99,,,0.00,Acu-Link.com,2013-05-04 13:53:00,
2013-05-04 07:08:00,67.3,39.4,29.63,NNE,22,6.3,-999.0,36,-99.99,,,0.00,Acu-Link.com,2013-05-04 14:08:00,
2013-05-04 07:24:00,69.6,38.4,29.63,NW,315,6.8,-999.0,32,-99.99,,,0.00,Acu-Link.com,2013-05-04 14:24:00,
2013-05-04 07:39:00,71.6,38.5,29.62,West,270,4.7,-999.0,30,-99.99,,,0.00,Acu-Link.com,2013-05-04 14:39:00,
2013-05-04 07:54:00,73.6,39.4,29.63,ENE,67,5.8,-999.0,29,-99.99,,,0.00,Acu-Link.com,2013-05-04 14:54:00,
2013-05-04 08:09:00,74.8,39.5,29.62,NW,315,8.3,-999.0,28,-99.99,,,0.00,Acu-Link.com,2013-05-04 15:09:00,
2013-05-04 08:24:00,75.6,38.3,29.61,West,270,4.2,-999.0,26,-99.99,,,0.00,Acu-Link.com,2013-05-04 15:24:00,
2013-05-04 08:39:00,77.2,37.6,29.61,West,270,8.3,-999.0,24,-99.99,,,0.00,Acu-Link.com,2013-05-04 15:39:00,
2013-05-04 08:55:00,77.7,36.9,29.61,West,270,7.8,-999.0,23,-99.99,,,0.00,Acu-Link.com,2013-05-04 15:55:00,
2013-05-04 09:10:00,79.0,35.7,29.60,NW,315,6.3,-999.0,21,-99.99,,,0.00,Acu-Link.com,2013-05-04 16:10:00,
2013-05-04 09:25:00,80.6,34.5,29.59,East,90,7.3,-999.0,19,-99.99,,,0.00,Acu-Link.com,2013-05-04 16:25:00,
2013-05-04 09:40:00,80.1,34.1,29.59,WSW,247,7.3,-999.0,19,-99.99,,,0.00,Acu-Link.com,2013-05-04 16:40:00,
2013-05-04 09:55:00,81.0,34.8,29.58,WNW,292,8.9,-999.0,19,-99.99,,,0.00,Acu-Link.com,2013-05-04 16:55:00,
2013-05-04 10:11:00,81.5,33.9,29.58,ENE,67,9.9,-999.0,18,-99.99,,,0.00,Acu-Link.com,2013-05-04 17:11:00,
2013-05-04 10:26:00,82.8,33.5,29.57,West,270,15.5,-999.0,17,-99.99,,,0.00,Acu-Link.com,2013-05-04 17:26:00,
2013-05-04 10:41:00,84.2,34.6,29.57,West,270,3.7,-999.0,17,-99.99,,,0.00,Acu-Link.com,2013-05-04 17:41:00,
2013-05-04 10:56:00,85.1,30.5,29.57,WSW,247,9.4,-999.0,14,-99.99,,,0.00,Acu-Link.com,2013-05-04 17:56:00,
2013-05-04 11:12:00,85.3,28.9,29.58,NW,315,8.3,-999.0,13,-99.99,,,0.00,Acu-Link.com,2013-05-04 18:12:00,
2013-05-04 11:27:00,86.0,27.5,29.57,NNW,337,14.0,-999.0,12,-99.99,,,0.00,Acu-Link.com,2013-05-04 18:27:00,
2013-05-04 11:42:00,87.1,28.3,29.56,NNW,337,6.8,-999.0,12,-99.99,,,0.00,Acu-Link.com,2013-05-04 18:42:00,
2013-05-04 11:57:00,87.8,28.9,29.56,WNW,292,10.9,-999.0,12,-99.99,,,0.00,Acu-Link.com,2013-05-04 18:57:00,
2013-05-04 12:12:00,88.0,29.0,29.55,East,90,5.3,-999.0,12,-99.99,,,0.00,Acu-Link.com,2013-05-04 19:12:00,
2013-05-04 12:27:00,88.2,27.1,29.54,WNW,292,11.4,-999.0,11,-99.99,,,0.00,Acu-Link.com,2013-05-04 19:27:00,
2013-05-04 12:42:00,89.2,27.8,29.54,West,270,6.3,-999.0,11,-99.99,,,0.00,Acu-Link.com,2013-05-04 19:42:00,
2013-05-04 12:58:00,89.8,28.3,29.53,West,270,4.7,-999.0,11,-99.99,,,0.00,Acu-Link.com,2013-05-04 19:58:00,
2013-05-04 13:13:00,90.5,28.8,29.52,West,270,9.4,-999.0,11,-99.99,,,0.00,Acu-Link.com,2013-05-04 20:13:00,
2013-05-04 13:28:00,90.5,26.5,29.52,East,90,5.3,-999.0,10,-99.99,,,0.00,Acu-Link.com,2013-05-04 20:28:00,
2013-05-04 13:43:00,91.6,27.3,29.51,NNE,22,3.7,-999.0,10,-99.99,,,0.00,Acu-Link.com,2013-05-04 20:43:00,
2013-05-04 13:58:00,91.9,25.0,29.51,WNW,292,6.3,-999.0,9,-99.99,,,0.00,Acu-Link.com,2013-05-04 20:58:00,
2013-05-04 14:13:00,92.1,22.3,29.50,WNW,292,10.4,-999.0,8,-99.99,,,0.00,Acu-Link.com,2013-05-04 21:13:00,
2013-05-04 14:28:00,91.9,25.0,29.49,SSW,202,2.7,-999.0,9,-99.99,,,0.00,Acu-Link.com,2013-05-04 21:28:00,
2013-05-04 14:44:00,91.8,24.9,29.49,NW,315,7.3,-999.0,9,-99.99,,,0.00,Acu-Link.com,2013-05-04 21:44:00,
2013-05-04 14:59:00,91.4,24.6,29.48,North,0,4.2,-999.0,9,-99.99,,,0.00,Acu-Link.com,2013-05-04 21:59:00,
2013-05-04 15:14:00,91.8,22.1,29.47,WNW,292,4.2,-999.0,8,-99.99,,,0.00,Acu-Link.com,2013-05-04 22:14:00,
2013-05-04 15:29:00,92.3,25.3,29.46,WSW,247,5.8,-999.0,9,-99.99,,,0.00,Acu-Link.com,2013-05-04 22:29:00,
2013-05-04 15:44:00,92.5,25.5,29.45,WNW,292,7.3,-999.0,9,-99.99,,,0.00,Acu-Link.com,2013-05-04 22:44:00,
2013-05-04 15:59:00,92.5,22.6,29.45,East,90,4.7,-999.0,8,-99.99,,,0.00,Acu-Link.com,2013-05-04 22:59:00,
2013-05-04 16:14:00,91.9,22.2,29.44,NW,315,5.3,-999.0,8,-99.99,,,0.00,Acu-Link.com,2013-05-04 23:14:00,
2013-05-04 16:29:00,92.3,27.8,29.42,WNW,292,4.2,-999.0,10,-99.99,,,0.00,Acu-Link.com,2013-05-04 23:29:00,
2013-05-04 16:44:00,91.6,22.0,29.42,SW,225,3.2,-999.0,8,-99.99,,,0.00,Acu-Link.com,2013-05-04 23:44:00,
2013-05-04 17:00:00,92.1,22.3,29.42,NNW,337,4.2,-999.0,8,-99.99,,,0.00,Acu-Link.com,2013-05-05 00:00:00,
2013-05-04 17:15:00,91.2,21.7,29.41,North,0,4.2,-999.0,8,-99.99,,,0.00,Acu-Link.com,2013-05-05 00:15:00,
2013-05-04 17:30:00,91.8,22.1,29.40,West,270,6.3,-999.0,8,-99.99,,,0.00,Acu-Link.com,2013-05-05 00:30:00,
2013-05-04 17:45:00,91.2,21.7,29.40,West,270,2.7,-999.0,8,-99.99,,,0.00,Acu-Link.com,2013-05-05 00:45:00,
2013-05-04 18:01:00,92.1,19.2,29.40,WNW,292,5.3,-999.0,7,-99.99,,,0.00,Acu-Link.com,2013-05-05 01:01:00,
2013-05-04 18:16:00,92.5,22.6,29.39,WSW,247,4.7,-999.0,8,-99.99,,,0.00,Acu-Link.com,2013-05-05 01:16:00,
2013-05-04 18:31:00,91.8,24.9,29.39,West,270,7.3,-999.0,9,-99.99,,,0.00,Acu-Link.com,2013-05-05 01:31:00,
2013-05-04 18:46:00,90.3,26.3,29.39,West,270,5.3,-999.0,10,-99.99,,,0.00,Acu-Link.com,2013-05-05 01:46:00,
2013-05-04 19:01:00,88.9,27.6,29.39,West,270,4.2,-999.0,11,-99.99,,,0.00,Acu-Link.com,2013-05-05 02:01:00,
2013-05-04 19:16:00,87.6,26.6,29.39,West,270,2.7,-999.0,11,-99.99,,,0.00,Acu-Link.com,2013-05-05 02:16:00,
2013-05-04 19:32:00,85.3,34.0,29.40,SW,225,1.1,-999.0,16,-99.99,,,0.00,Acu-Link.com,2013-05-05 02:32:00,
2013-05-04 19:47:00,80.1,45.8,29.40,SSW,202,6.8,-999.0,30,-99.99,,,0.00,Acu-Link.com,2013-05-05 02:47:00,
2013-05-04 20:02:00,76.1,47.9,29.40,WSW,247,5.8,-999.0,37,-99.99,,,0.00,Acu-Link.com,2013-05-05 03:02:00,
2013-05-04 20:17:00,72.5,48.1,29.41,ESE,112,4.7,-999.0,42,-99.99,,,0.00,Acu-Link.com,2013-05-05 03:17:00,
2013-05-04 20:32:00,68.9,48.4,29.41,SSE,157,9.9,-999.0,48,-99.99,,,0.00,Acu-Link.com,2013-05-05 03:32:00,
2013-05-04 20:48:00,66.4,48.2,29.41,SW,225,2.2,-999.0,52,-99.99,,,0.00,Acu-Link.com,2013-05-05 03:48:00,
2013-05-04 21:03:00,65.5,48.4,29.42,West,270,1.7,-999.0,54,-99.99,,,0.00,Acu-Link.com,2013-05-05 04:03:00,
2013-05-04 21:18:00,64.0,48.5,29.42,SW,225,3.2,-999.0,57,-99.99,,,0.00,Acu-Link.com,2013-05-05 04:18:00,
2013-05-04 21:33:00,62.8,48.3,29.43,SE,135,4.2,-999.0,59,-99.99,,,0.00,Acu-Link.com,2013-05-05 04:33:00,
2013-05-04 21:48:00,62.1,48.5,29.43,WSW,247,5.3,-999.0,61,-99.99,,,0.00,Acu-Link.com,2013-05-05 04:48:00,
2013-05-04 22:03:00,61.2,48.5,29.44,South,180,4.7,-999.0,63,-99.99,,,0.00,Acu-Link.com,2013-05-05 05:03:00,
2013-05-04 22:19:00,60.4,48.2,29.44,SSW,202,5.3,-999.0,64,-99.99,,,0.00,Acu-Link.com,2013-05-05 05:19:00,
2013-05-04 22:34:00,59.7,48.3,29.44,SSW,202,6.3,-999.0,66,-99.99,,,0.00,Acu-Link.com,2013-05-05 05:34:00,
2013-05-04 22:49:00,59.0,48.5,29.45,West,270,6.3,-999.0,68,-99.99,,,0.00,Acu-Link.com,2013-05-05 05:49:00,
2013-05-04 23:04:00,58.5,48.4,29.45,SSW,202,4.7,-999.0,69,-99.99,,,0.00,Acu-Link.com,2013-05-05 06:04:00,
2013-05-04 23:19:00,57.9,48.2,29.46,SSE,157,3.2,-999.0,70,-99.99,,,0.00,Acu-Link.com,2013-05-05 06:19:00,
2013-05-04 23:34:00,58.1,47.6,29.46,West,270,4.2,-999.0,68,-99.99,,,0.00,Acu-Link.com,2013-05-05 06:34:00,
2013-05-04 23:49:00,58.6,46.9,29.46,West,270,3.7,-999.0,65,-99.99,,,0.00,Acu-Link.com,2013-05-05 06:49:00,